createdAt,value
2023-01-29T00:00:12.598Z,99.20
2023-01-29T00:02:41.033Z,99.20
2023-01-29T00:05:26.388Z,99.20
2023-01-29T00:07:55.965Z,99.20
2023-01-29T00:10:24.787Z,99.10
2023-01-29T00:12:53.239Z,99.10
2023-01-29T00:15:22.940Z,99.10
2023-01-29T00:17:51.404Z,99.10
2023-01-29T00:20:20.149Z,98.90
2023-01-29T00:22:48.913Z,98.90
2023-01-29T00:25:17.406Z,98.80
2023-01-29T00:27:45.870Z,98.70
2023-01-29T00:30:19.797Z,98.60
2023-01-29T00:32:49.823Z,98.50
2023-01-29T00:35:18.371Z,98.30
2023-01-29T00:37:46.765Z,98.20
2023-01-29T00:40:15.802Z,97.90
2023-01-29T00:43:03.505Z,97.70
2023-01-29T00:45:31.915Z,97.50
2023-01-29T00:48:01.716Z,97.20
2023-01-29T00:50:30.519Z,96.90
2023-01-29T00:52:59.256Z,96.50
2023-01-29T00:55:27.741Z,96.20
2023-01-29T00:57:56.175Z,95.80
2023-01-29T01:00:24.977Z,95.40
2023-01-29T01:03:07.727Z,95.00
2023-01-29T01:05:39.260Z,94.60
2023-01-29T01:08:28.730Z,94.30
2023-01-29T01:11:00.868Z,93.90
2023-01-29T01:13:29.436Z,93.50
2023-01-29T01:15:58.806Z,93.20
2023-01-29T01:18:30.341Z,93.00
2023-01-29T01:21:00.441Z,92.80
2023-01-29T01:23:28.804Z,92.50
2023-01-29T01:25:57.203Z,92.30
2023-01-29T01:28:25.647Z,92.10
2023-01-29T01:30:54.031Z,92.00
2023-01-29T01:33:22.451Z,91.80
2023-01-29T01:35:50.907Z,91.60
2023-01-29T01:38:20.584Z,91.40
2023-01-29T01:40:48.977Z,91.30
2023-01-29T01:43:17.314Z,91.20
2023-01-29T01:45:46.868Z,91.00
2023-01-29T01:48:20.721Z,90.80
2023-01-29T01:50:53.625Z,91.10
2023-01-29T01:53:27.178Z,90.70
2023-01-29T01:56:00.046Z,90.60
2023-01-29T01:58:32.975Z,90.40
2023-01-29T02:01:01.844Z,90.30
2023-01-29T02:03:51.994Z,90.10
2023-01-29T02:06:37.920Z,90.00
2023-01-29T02:09:31.515Z,89.60
2023-01-29T02:11:59.915Z,89.10
2023-01-29T02:14:28.533Z,88.70
2023-01-29T02:16:56.931Z,88.50
2023-01-29T02:19:37.534Z,88.10
2023-01-29T02:22:37.053Z,88.10
2023-01-29T02:25:40.345Z,87.80
2023-01-29T02:28:26.693Z,87.60
2023-01-29T02:31:02.765Z,87.40
2023-01-29T02:33:45.737Z,87.40
2023-01-29T02:36:23.255Z,87.40
2023-01-29T02:39:01.222Z,87.40
2023-01-29T02:41:36.253Z,87.50
2023-01-29T02:44:14.307Z,87.70
2023-01-29T02:46:51.103Z,87.90
2023-01-29T02:49:26.095Z,88.40
2023-01-29T02:52:03.832Z,89.10
2023-01-29T02:54:40.953Z,89.70
2023-01-29T02:57:16.340Z,90.20
2023-01-29T02:59:55.167Z,90.50
2023-01-29T03:02:30.303Z,90.80
2023-01-29T03:05:03.176Z,91.10
2023-01-29T03:07:45.020Z,91.40
2023-01-29T03:10:40.705Z,91.80
2023-01-29T03:13:15.783Z,92.10
2023-01-29T03:15:52.216Z,92.30
2023-01-29T03:18:46.275Z,92.60
2023-01-29T03:21:38.557Z,92.90
2023-01-29T03:24:27.621Z,93.10
2023-01-29T03:27:17.314Z,93.40
2023-01-29T03:30:06.500Z,93.60
2023-01-29T03:33:03.806Z,93.90
2023-01-29T03:35:39.591Z,94.10
2023-01-29T03:38:11.132Z,94.30
2023-01-29T03:40:47.005Z,94.30
2023-01-29T03:43:23.757Z,94.50
2023-01-29T03:46:01.760Z,94.60
2023-01-29T03:48:36.893Z,94.80
2023-01-29T03:51:17.783Z,94.90
2023-01-29T03:53:53.374Z,95.00
2023-01-29T03:56:37.854Z,95.20
2023-01-29T03:59:19.841Z,95.30
2023-01-29T04:02:14.680Z,95.40
2023-01-29T04:04:48.239Z,95.50
2023-01-29T04:07:24.661Z,95.60
2023-01-29T04:10:06.824Z,95.60
2023-01-29T04:12:42.242Z,95.70
2023-01-29T04:15:16.583Z,95.70
2023-01-29T04:17:51.726Z,95.70
2023-01-29T04:20:28.452Z,95.60
2023-01-29T04:22:57.507Z,95.60
2023-01-29T04:25:29.078Z,95.70
2023-01-29T04:28:08.994Z,95.60
2023-01-29T04:30:46.418Z,95.60
2023-01-29T04:33:24.432Z,95.50
2023-01-29T04:36:11.183Z,95.60
2023-01-29T04:38:52.693Z,95.60
2023-01-29T04:41:25.974Z,95.50
2023-01-29T04:44:03.630Z,95.50
2023-01-29T04:46:39.268Z,95.40
2023-01-29T04:49:18.535Z,95.40
2023-01-29T04:51:57.775Z,95.40
2023-01-29T04:54:33.825Z,95.40
2023-01-29T04:57:10.800Z,95.30
2023-01-29T04:59:46.561Z,95.40
2023-01-29T05:02:15.438Z,95.30
2023-01-29T05:04:46.100Z,95.30
2023-01-29T05:07:17.225Z,95.30
2023-01-29T05:09:48.553Z,95.40
2023-01-29T05:12:19.454Z,95.40
2023-01-29T05:14:50.432Z,95.40
2023-01-29T05:17:21.275Z,95.40
2023-01-29T05:19:50.037Z,95.40
2023-01-29T05:22:22.780Z,95.40
2023-01-29T05:24:51.498Z,95.40
2023-01-29T05:27:41.021Z,95.30
2023-01-29T05:30:10.583Z,95.30
2023-01-29T05:32:39.789Z,95.20
2023-01-29T05:35:08.808Z,95.10
2023-01-29T05:37:38.483Z,95.00
2023-01-29T05:40:08.926Z,95.00
2023-01-29T05:42:37.411Z,94.80
2023-01-29T05:45:06.252Z,94.60
2023-01-29T05:47:34.614Z,94.50
2023-01-29T05:50:02.928Z,94.30
2023-01-29T05:52:31.275Z,94.20
2023-01-29T05:55:00.950Z,94.10
2023-01-29T05:57:29.371Z,94.00
2023-01-29T05:59:57.723Z,93.90
2023-01-29T06:02:26.123Z,93.80
2023-01-29T06:04:54.494Z,93.70
2023-01-29T06:07:25.153Z,93.70
2023-01-29T06:09:53.615Z,93.70
2023-01-29T06:12:23.371Z,93.50
2023-01-29T06:14:52.197Z,93.50
2023-01-29T06:17:20.595Z,93.40
2023-01-29T06:19:48.955Z,93.30
2023-01-29T06:22:17.294Z,93.20
2023-01-29T06:24:45.754Z,93.00
2023-01-29T06:27:14.143Z,93.00
2023-01-29T06:29:43.835Z,92.90
2023-01-29T06:32:12.335Z,92.80
2023-01-29T06:34:40.855Z,92.80
2023-01-29T06:37:09.273Z,92.70
2023-01-29T06:39:37.673Z,92.60
2023-01-29T06:42:06.050Z,92.50
2023-01-29T06:44:34.377Z,92.40
2023-01-29T06:47:04.021Z,92.30
2023-01-29T06:49:32.673Z,92.20
2023-01-29T06:52:01.092Z,92.20
2023-01-29T06:54:29.667Z,92.20
2023-01-29T06:56:58.079Z,92.00
2023-01-29T06:59:26.487Z,91.90
2023-01-29T07:01:54.922Z,91.80
2023-01-29T07:04:24.593Z,91.70
2023-01-29T07:06:52.940Z,91.70
2023-01-29T07:09:21.325Z,91.50
2023-01-29T07:11:49.743Z,91.40
2023-01-29T07:14:18.159Z,91.10
2023-01-29T07:16:46.546Z,90.90
2023-01-29T07:19:15.715Z,90.60
2023-01-29T07:21:45.335Z,90.40
2023-01-29T07:24:13.777Z,90.20
2023-01-29T07:26:42.185Z,90.10
2023-01-29T07:29:10.609Z,89.90
2023-01-29T07:31:39.116Z,89.40
2023-01-29T07:34:07.432Z,89.00
2023-01-29T07:36:37.259Z,88.40
2023-01-29T07:39:06.984Z,87.90
2023-01-29T07:41:35.416Z,87.40
2023-01-29T07:44:10.069Z,87.20
2023-01-29T07:46:38.505Z,86.70
2023-01-29T07:49:06.898Z,86.30
2023-01-29T07:51:35.290Z,85.80
2023-01-29T07:54:03.661Z,85.30
2023-01-29T07:56:33.356Z,84.90
2023-01-29T07:59:01.769Z,84.60
2023-01-29T08:01:30.196Z,84.20
2023-01-29T08:03:58.527Z,83.80
2023-01-29T08:06:27.085Z,83.50
2023-01-29T08:08:55.924Z,83.20
2023-01-29T08:11:24.571Z,83.20
2023-01-29T08:13:54.483Z,83.20
2023-01-29T08:16:22.860Z,82.80
2023-01-29T08:18:51.194Z,82.00
2023-01-29T08:21:19.636Z,81.40
2023-01-29T08:23:48.015Z,80.80
2023-01-29T08:26:16.309Z,80.00
2023-01-29T08:28:44.767Z,79.70
2023-01-29T08:31:20.597Z,79.60
2023-01-29T08:33:49.230Z,79.10
2023-01-29T08:36:17.618Z,78.70
2023-01-29T08:38:45.914Z,78.00
2023-01-29T08:41:14.254Z,77.60
2023-01-29T08:43:42.704Z,77.10
2023-01-29T08:46:11.123Z,76.30
2023-01-29T08:48:40.895Z,76.00
2023-01-29T08:51:10.012Z,75.60
2023-01-29T08:53:38.443Z,75.20
2023-01-29T08:56:07.418Z,74.90
2023-01-29T08:58:35.885Z,74.60
2023-01-29T09:01:08.436Z,74.10
2023-01-29T09:03:36.935Z,73.90
2023-01-29T09:06:06.824Z,73.70
2023-01-29T09:08:36.013Z,73.30
2023-01-29T09:11:04.832Z,72.80
2023-01-29T09:13:33.502Z,72.70
2023-01-29T09:16:02.362Z,71.90
2023-01-29T09:18:32.190Z,71.10
2023-01-29T09:21:02.560Z,70.50
2023-01-29T09:23:32.426Z,70.00
2023-01-29T09:26:01.377Z,69.60
2023-01-29T09:28:29.964Z,69.10
2023-01-29T09:31:01.697Z,68.90
2023-01-29T09:33:31.046Z,68.30
2023-01-29T09:35:59.383Z,67.80
2023-01-29T09:38:28.064Z,67.30
2023-01-29T09:41:04.813Z,67.10
2023-01-29T09:43:44.190Z,67.00
2023-01-29T09:46:21.786Z,66.80
2023-01-29T09:48:58.888Z,66.70
2023-01-29T09:51:31.743Z,67.20
2023-01-29T09:54:10.387Z,66.00
2023-01-29T09:56:40.295Z,65.70
2023-01-29T09:59:12.100Z,65.10
2023-01-29T10:01:48.938Z,64.50
2023-01-29T10:05:08.244Z,64.30
2023-01-29T10:08:20.033Z,64.10
2023-01-29T10:10:52.256Z,63.70
2023-01-29T10:13:34.038Z,63.50
2023-01-29T10:16:18.740Z,63.40
2023-01-29T10:19:15.791Z,63.30
2023-01-29T10:22:12.942Z,63.10
2023-01-29T10:24:52.425Z,62.90
2023-01-29T10:27:21.793Z,62.40
2023-01-29T10:29:55.439Z,62.30
2023-01-29T10:32:27.331Z,62.00
2023-01-29T10:35:00.054Z,62.00
2023-01-29T10:37:40.863Z,61.50
2023-01-29T10:40:21.972Z,61.50
2023-01-29T10:42:57.267Z,62.00
2023-01-29T10:45:35.776Z,62.20
2023-01-29T10:48:41.985Z,62.40
2023-01-29T10:51:22.589Z,62.20
2023-01-29T10:54:05.276Z,62.30
2023-01-29T10:56:51.825Z,62.30
2023-01-29T10:59:40.677Z,61.90
2023-01-29T11:02:19.691Z,61.00
2023-01-29T11:04:51.219Z,60.70
2023-01-29T11:07:22.285Z,61.30
2023-01-29T11:09:58.753Z,62.20
2023-01-29T11:12:32.236Z,62.00
2023-01-29T11:15:06.255Z,60.50
2023-01-29T11:17:35.962Z,58.60
2023-01-29T11:20:07.324Z,57.10
2023-01-29T11:22:37.032Z,55.20
2023-01-29T11:25:17.708Z,53.40
2023-01-29T11:27:48.457Z,51.90
2023-01-29T11:30:22.987Z,50.50
2023-01-29T11:33:00.164Z,49.40
2023-01-29T11:35:30.363Z,49.30
2023-01-29T11:38:09.175Z,48.80
2023-01-29T11:40:42.352Z,48.70
2023-01-29T11:43:29.119Z,48.30
2023-01-29T11:46:00.124Z,48.20
2023-01-29T11:48:36.566Z,48.00
2023-01-29T11:51:06.470Z,49.20
2023-01-29T11:53:38.760Z,49.20
2023-01-29T11:56:19.520Z,48.80
2023-01-29T11:58:49.342Z,48.30
2023-01-29T12:01:25.081Z,48.10
2023-01-29T12:03:55.741Z,48.20
2023-01-29T12:06:26.938Z,48.10
2023-01-29T12:08:58.322Z,48.00
2023-01-29T12:11:30.221Z,47.90
2023-01-29T12:14:00.965Z,48.20
2023-01-29T12:16:34.653Z,48.60
2023-01-29T12:19:13.091Z,49.00
2023-01-29T12:21:48.674Z,49.40
2023-01-29T12:24:34.808Z,50.00
2023-01-29T12:27:11.054Z,51.50
2023-01-29T12:29:46.719Z,52.90
2023-01-29T12:32:33.849Z,53.50
2023-01-29T12:35:13.724Z,53.20
2023-01-29T12:37:49.783Z,53.30
2023-01-29T12:40:20.166Z,52.20
2023-01-29T12:42:53.262Z,51.50
2023-01-29T12:45:24.492Z,50.60
2023-01-29T12:47:56.337Z,49.90
2023-01-29T12:50:29.837Z,49.30
2023-01-29T12:53:02.921Z,49.20
2023-01-29T12:55:38.591Z,49.10
2023-01-29T12:58:13.903Z,48.90
2023-01-29T13:00:46.015Z,48.90
2023-01-29T13:03:22.323Z,49.40
2023-01-29T13:05:55.934Z,49.20
2023-01-29T13:08:30.421Z,50.60
2023-01-29T13:11:02.718Z,50.90
2023-01-29T13:13:36.248Z,50.10
2023-01-29T13:16:08.628Z,49.40
2023-01-29T13:18:45.591Z,49.50
2023-01-29T13:21:19.396Z,49.30
2023-01-29T13:23:50.616Z,48.00
2023-01-29T13:26:20.141Z,47.40
2023-01-29T13:28:49.283Z,46.40
2023-01-29T13:31:28.727Z,46.40
2023-01-29T13:34:05.892Z,45.10
2023-01-29T13:36:38.245Z,44.90
2023-01-29T13:39:09.213Z,45.40
2023-01-29T13:41:39.992Z,45.50
2023-01-29T13:44:19.625Z,44.60
2023-01-29T13:46:53.137Z,44.00
2023-01-29T13:49:33.531Z,44.50
2023-01-29T13:52:17.126Z,43.70
2023-01-29T13:54:53.958Z,43.60
2023-01-29T13:57:50.554Z,43.70
2023-01-29T14:01:01.840Z,43.20
2023-01-29T14:04:08.368Z,42.60
2023-01-29T14:06:49.548Z,42.00
2023-01-29T14:10:03.454Z,41.30
2023-01-29T14:12:51.871Z,41.00
2023-01-29T14:15:26.529Z,41.20
2023-01-29T14:18:17.252Z,41.40
2023-01-29T14:21:01.057Z,41.40
2023-01-29T14:23:40.584Z,41.10
2023-01-29T14:26:32.279Z,41.20
2023-01-29T14:29:05.289Z,41.40
2023-01-29T14:31:44.970Z,41.30
2023-01-29T14:34:22.212Z,41.20
2023-01-29T14:36:55.617Z,41.60
2023-01-29T14:39:35.268Z,42.60
2023-01-29T14:42:16.341Z,42.10
2023-01-29T14:44:59.962Z,42.20
2023-01-29T14:47:57.502Z,42.50
2023-01-29T14:50:52.497Z,42.70
2023-01-29T14:53:30.968Z,43.10
2023-01-29T14:56:03.123Z,43.40
2023-01-29T14:58:39.035Z,43.70
2023-01-29T15:01:19.120Z,44.20
2023-01-29T15:03:50.008Z,44.60
2023-01-29T15:06:24.949Z,44.90
2023-01-29T15:09:01.861Z,45.30
2023-01-29T15:11:38.533Z,45.80
2023-01-29T15:14:25.123Z,46.10
2023-01-29T15:17:03.849Z,46.30
2023-01-29T15:19:37.207Z,46.70
2023-01-29T15:22:08.174Z,47.00
2023-01-29T15:24:37.160Z,47.30
2023-01-29T15:27:07.123Z,47.70
2023-01-29T15:29:37.365Z,47.80
2023-01-29T15:32:06.664Z,48.20
2023-01-29T15:34:35.751Z,48.40
2023-01-29T15:37:04.117Z,48.60
2023-01-29T15:39:32.534Z,48.80
2023-01-29T15:42:15.683Z,49.00
2023-01-29T15:44:48.592Z,49.30
2023-01-29T15:47:17.435Z,49.40
2023-01-29T15:49:49.245Z,49.70
2023-01-29T15:52:20.910Z,50.00
2023-01-29T15:54:49.517Z,50.10
2023-01-29T15:57:25.269Z,50.40
2023-01-29T15:59:58.275Z,50.50
2023-01-29T16:02:40.949Z,50.70
2023-01-29T16:05:15.107Z,50.90
2023-01-29T16:07:44.769Z,51.10
2023-01-29T16:10:19.137Z,51.30
2023-01-29T16:12:51.474Z,51.50
2023-01-29T16:15:32.291Z,51.60
2023-01-29T16:18:01.759Z,51.90
2023-01-29T16:20:44.203Z,51.90
2023-01-29T16:23:20.047Z,52.00
2023-01-29T16:25:50.302Z,52.80
2023-01-29T16:28:19.138Z,52.50
2023-01-29T16:30:49.088Z,53.10
2023-01-29T16:33:19.775Z,52.70
2023-01-29T16:35:53.175Z,52.90
2023-01-29T16:38:29.626Z,53.10
2023-01-29T16:41:15.567Z,53.30
2023-01-29T16:43:51.651Z,53.40
2023-01-29T16:46:34.359Z,53.60
2023-01-29T16:49:03.886Z,53.70
2023-01-29T16:51:37.822Z,53.90
2023-01-29T16:54:13.602Z,53.90
2023-01-29T16:56:41.958Z,54.10
2023-01-29T16:59:19.884Z,54.30
2023-01-29T17:01:50.612Z,54.30
2023-01-29T17:04:20.791Z,54.50
2023-01-29T17:06:51.285Z,54.50
2023-01-29T17:09:25.575Z,54.50
2023-01-29T17:11:57.509Z,54.70
2023-01-29T17:14:26.941Z,54.80
2023-01-29T17:17:03.011Z,54.90
2023-01-29T17:19:31.471Z,55.00
2023-01-29T17:22:04.739Z,55.10
2023-01-29T17:24:33.095Z,55.10
2023-01-29T17:27:02.462Z,55.10
2023-01-29T17:29:32.511Z,55.80
2023-01-29T17:32:02.272Z,55.30
2023-01-29T17:34:30.610Z,55.40
2023-01-29T17:36:59.032Z,55.50
2023-01-29T17:39:27.601Z,55.50
2023-01-29T17:41:58.491Z,55.70
2023-01-29T17:44:27.235Z,55.60
2023-01-29T17:46:55.653Z,55.60
2023-01-29T17:49:28.091Z,55.70
2023-01-29T17:51:57.818Z,55.70
2023-01-29T17:54:26.746Z,55.70
2023-01-29T17:56:55.568Z,55.80
2023-01-29T17:59:25.809Z,55.80
2023-01-29T18:01:54.543Z,55.80
2023-01-29T18:04:23.030Z,55.90
2023-01-29T18:06:54.348Z,56.00
2023-01-29T18:09:23.231Z,56.00
2023-01-29T18:11:53.111Z,56.00
2023-01-29T18:14:21.642Z,56.20
2023-01-29T18:16:49.961Z,56.20
2023-01-29T18:19:22.922Z,56.20
2023-01-29T18:21:53.558Z,56.20
2023-01-29T18:24:22.106Z,56.40
2023-01-29T18:26:51.303Z,56.50
2023-01-29T18:29:19.727Z,56.50
2023-01-29T18:31:50.101Z,56.60
2023-01-29T18:34:18.594Z,56.60
2023-01-29T18:36:48.055Z,56.60
2023-01-29T18:39:18.201Z,56.80
2023-01-29T18:41:46.645Z,56.80
2023-01-29T18:44:15.606Z,56.80
2023-01-29T18:46:44.172Z,56.90
2023-01-29T18:49:12.776Z,57.00
2023-01-29T18:51:41.166Z,57.00
2023-01-29T18:54:13.025Z,57.10
2023-01-29T18:57:13.407Z,57.20
2023-01-29T18:59:31.265Z,57.30
2023-01-29T19:01:59.830Z,57.30
2023-01-29T19:04:28.195Z,57.30
2023-01-29T19:06:56.494Z,57.50
2023-01-29T19:09:24.824Z,57.50
2023-01-29T19:11:56.131Z,57.50
2023-01-29T19:14:24.583Z,57.50
2023-01-29T19:16:53.060Z,57.70
2023-01-29T19:19:21.548Z,57.70
2023-01-29T19:21:52.512Z,57.70
2023-01-29T19:24:21.308Z,57.70
2023-01-29T19:26:50.011Z,57.90
2023-01-29T19:29:20.244Z,58.50
2023-01-29T19:31:48.897Z,58.10
2023-01-29T19:34:17.474Z,58.20
2023-01-29T19:36:46.005Z,58.20
2023-01-29T19:39:14.956Z,58.30
2023-01-29T19:41:43.449Z,58.40
2023-01-29T19:44:12.035Z,58.50
2023-01-29T19:46:41.861Z,58.60
2023-01-29T19:49:10.763Z,58.60
2023-01-29T19:51:40.687Z,58.60
2023-01-29T19:54:10.628Z,58.70
2023-01-29T19:56:39.131Z,58.80
2023-01-29T19:59:07.561Z,58.90
2023-01-29T20:01:36.245Z,58.90
2023-01-29T20:04:06.147Z,59.00
2023-01-29T20:06:34.506Z,59.20
2023-01-29T20:09:03.071Z,59.10
2023-01-29T20:11:32.347Z,59.30
2023-01-29T20:14:00.709Z,59.30
2023-01-29T20:16:29.236Z,59.40
2023-01-29T20:19:13.977Z,59.50
2023-01-29T20:21:48.896Z,59.60
2023-01-29T20:24:17.408Z,59.70
2023-01-29T20:26:45.956Z,59.80
2023-01-29T20:29:15.402Z,59.80
2023-01-29T20:31:43.809Z,59.90
2023-01-29T20:34:12.365Z,60.00
2023-01-29T20:36:40.864Z,60.00
2023-01-29T20:39:10.575Z,60.00
2023-01-29T20:41:41.671Z,60.10
2023-01-29T20:44:10.594Z,60.20
2023-01-29T20:46:39.280Z,60.30
2023-01-29T20:49:08.122Z,60.40
2023-01-29T20:51:36.635Z,60.50
2023-01-29T20:54:05.104Z,60.50
2023-01-29T20:56:37.050Z,61.30
2023-01-29T20:59:10.998Z,60.70
2023-01-29T21:01:39.409Z,60.70
2023-01-29T21:04:07.757Z,60.80
2023-01-29T21:06:36.166Z,60.90
2023-01-29T21:09:04.771Z,60.90
2023-01-29T21:11:34.646Z,61.00
2023-01-29T21:14:02.929Z,61.10
2023-01-29T21:16:31.551Z,61.10
2023-01-29T21:19:00.695Z,61.30
2023-01-29T21:21:29.065Z,61.40
2023-01-29T21:23:58.335Z,61.50
2023-01-29T21:26:26.870Z,61.50
2023-01-29T21:28:56.527Z,61.50
2023-01-29T21:31:24.965Z,61.60
2023-01-29T21:33:53.351Z,61.70
2023-01-29T21:36:21.792Z,61.70
2023-01-29T21:38:50.053Z,61.90
2023-01-29T21:41:18.377Z,61.90
2023-01-29T21:43:45.795Z,62.00
2023-01-29T21:46:16.231Z,62.00
2023-01-29T21:48:44.778Z,62.10
2023-01-29T21:51:13.084Z,62.10
2023-01-29T21:53:41.412Z,62.10
2023-01-29T21:56:09.732Z,62.20
2023-01-29T21:58:38.080Z,62.30
2023-01-29T22:01:36.829Z,62.30
2023-01-29T22:03:57.203Z,62.30
2023-01-29T22:06:26.441Z,62.40
2023-01-29T22:08:54.745Z,62.50
2023-01-29T22:11:23.177Z,62.70
2023-01-29T22:13:51.452Z,63.70
2023-01-29T22:16:19.972Z,63.10
2023-01-29T22:18:50.187Z,63.90
2023-01-29T22:21:19.885Z,63.30
2023-01-29T22:23:50.484Z,63.50
2023-01-29T22:26:19.015Z,63.60
2023-01-29T22:28:47.550Z,63.70
2023-01-29T22:31:15.873Z,63.70
2023-01-29T22:33:44.877Z,63.90
2023-01-29T22:36:13.263Z,64.60
2023-01-29T22:38:44.736Z,63.90
2023-01-29T22:41:15.071Z,64.00
2023-01-29T22:43:44.157Z,64.10
2023-01-29T22:46:12.914Z,64.20
2023-01-29T22:48:41.317Z,64.20
2023-01-29T22:51:11.022Z,64.20
2023-01-29T22:53:40.217Z,64.40
2023-01-29T22:56:11.331Z,64.50
2023-01-29T22:58:41.147Z,64.70
2023-01-29T23:01:09.890Z,64.80
2023-01-29T23:03:38.722Z,65.00
2023-01-29T23:06:07.191Z,65.10
2023-01-29T23:08:35.645Z,65.20
2023-01-29T23:11:14.497Z,65.50
2023-01-29T23:13:46.705Z,65.60
2023-01-29T23:16:16.156Z,65.80
2023-01-29T23:18:45.830Z,65.90
2023-01-29T23:21:14.337Z,66.10
2023-01-29T23:23:44.955Z,66.20
2023-01-29T23:26:31.654Z,66.20
2023-01-29T23:29:03.848Z,66.40
2023-01-29T23:31:32.854Z,66.50
2023-01-29T23:34:01.459Z,66.40
2023-01-29T23:36:30.020Z,66.50
2023-01-29T23:38:58.347Z,66.70
2023-01-29T23:41:26.704Z,66.70
2023-01-29T23:43:55.087Z,66.80
2023-01-29T23:46:24.758Z,67.00
2023-01-29T23:48:53.119Z,67.10
2023-01-29T23:51:21.496Z,67.20
2023-01-29T23:53:49.980Z,67.40
2023-01-29T23:56:18.496Z,67.60
2023-01-29T23:58:46.930Z,68.00
